sensor_id;sensor_type;location;lat;lon;timestamp;pressure;altitude;pressure_sealevel;temperature;humidity
57192;BME280;43052;52.588;13.396;2023-05-07T00:00:15;101808.03;;;8.60;79.80
57192;BME280;43052;52.588;13.396;2023-05-07T00:02:43;101810.63;;;8.60;79.56
57192;BME280;43052;52.588;13.396;2023-05-07T00:05:09;101808.09;;;8.64;79.85
57192;BME280;43052;52.588;13.396;2023-05-07T00:07:35;101811.56;;;8.62;79.95
57192;BME280;43052;52.588;13.396;2023-05-07T00:10:00;101816.81;;;8.66;79.56
57192;BME280;43052;52.588;13.396;2023-05-07T00:12:25;101819.50;;;8.69;79.32
57192;BME280;43052;52.588;13.396;2023-05-07T00:14:50;101810.75;;;8.67;79.07
57192;BME280;43052;52.588;13.396;2023-05-07T00:49:44;101784.09;;;8.39;79.66
57192;BME280;43052;52.588;13.396;2023-05-07T00:53:10;101810.53;;;8.54;79.35
57192;BME280;43052;52.588;13.396;2023-05-07T00:59:21;101786.06;;;8.48;79.15
57192;BME280;43052;52.588;13.396;2023-05-07T01:01:47;101793.16;;;8.55;79.36
57192;BME280;43052;52.588;13.396;2023-05-07T01:05:12;101818.56;;;8.65;79.03
57192;BME280;43052;52.588;13.396;2023-05-07T01:11:16;101804.50;;;8.58;78.87
57192;BME280;43052;52.588;13.396;2023-05-07T01:13:51;101786.88;;;8.46;78.95
57192;BME280;43052;52.588;13.396;2023-05-07T01:16:17;101774.59;;;8.41;78.91
57192;BME280;43052;52.588;13.396;2023-05-07T01:19:12;101781.56;;;8.42;78.90
57192;BME280;43052;52.588;13.396;2023-05-07T01:21:45;101800.03;;;8.51;78.99
57192;BME280;43052;52.588;13.396;2023-05-07T01:24:12;101807.03;;;8.54;78.99
57192;BME280;43052;52.588;13.396;2023-05-07T01:26:41;101810.38;;;8.48;79.12
57192;BME280;43052;52.588;13.396;2023-05-07T01:29:09;101802.56;;;8.48;78.94
57192;BME280;43052;52.588;13.396;2023-05-07T01:41:46;101798.38;;;8.55;78.18
57192;BME280;43052;52.588;13.396;2023-05-07T02:58:01;101839.66;;;8.36;76.08
57192;BME280;43052;52.588;13.396;2023-05-07T03:04:55;101860.00;;;8.51;75.69
57192;BME280;43052;52.588;13.396;2023-05-07T03:08:07;101847.50;;;8.38;76.05
57192;BME280;43052;52.588;13.396;2023-05-07T03:11:04;101836.13;;;8.34;76.04
57192;BME280;43052;52.588;13.396;2023-05-07T04:15:16;101868.13;;;8.27;75.49
57192;BME280;43052;52.588;13.396;2023-05-07T04:38:26;101903.72;;;8.65;74.41
57192;BME280;43052;52.588;13.396;2023-05-07T04:40:53;101909.91;;;8.68;74.42
57192;BME280;43052;52.588;13.396;2023-05-07T04:43:18;101912.53;;;8.71;74.74
57192;BME280;43052;52.588;13.396;2023-05-07T04:45:43;101911.69;;;8.72;74.20
57192;BME280;43052;52.588;13.396;2023-05-07T04:48:09;101924.09;;;8.83;73.74
57192;BME280;43052;52.588;13.396;2023-05-07T04:50:34;101916.34;;;8.86;72.75
57192;BME280;43052;52.588;13.396;2023-05-07T04:53:00;101918.88;;;8.83;72.83
57192;BME280;43052;52.588;13.396;2023-05-07T04:55:25;101921.38;;;8.78;72.32
57192;BME280;43052;52.588;13.396;2023-05-07T04:57:51;101922.97;;;8.71;72.64
57192;BME280;43052;52.588;13.396;2023-05-07T05:00:17;101928.19;;;8.70;72.85
57192;BME280;43052;52.588;13.396;2023-05-07T05:02:44;101925.69;;;8.77;73.10
57192;BME280;43052;52.588;13.396;2023-05-07T05:05:09;101929.22;;;8.80;72.30
57192;BME280;43052;52.588;13.396;2023-05-07T05:07:35;101920.44;;;8.74;72.36
57192;BME280;43052;52.588;13.396;2023-05-07T05:10:01;101931.06;;;8.84;72.22
57192;BME280;43052;52.588;13.396;2023-05-07T05:12:27;101933.78;;;8.88;71.79
57192;BME280;43052;52.588;13.396;2023-05-07T05:14:53;101932.84;;;8.85;72.01
57192;BME280;43052;52.588;13.396;2023-05-07T05:17:18;101927.72;;;8.89;71.98
57192;BME280;43052;52.588;13.396;2023-05-07T05:19:43;101942.81;;;9.06;71.73
57192;BME280;43052;52.588;13.396;2023-05-07T05:22:09;101941.16;;;9.11;70.57
57192;BME280;43052;52.588;13.396;2023-05-07T05:24:34;101941.19;;;9.13;70.33
57192;BME280;43052;52.588;13.396;2023-05-07T05:26:59;101944.22;;;9.34;70.69
57192;BME280;43052;52.588;13.396;2023-05-07T05:29:26;101943.09;;;9.70;69.88
57192;BME280;43052;52.588;13.396;2023-05-07T05:31:51;101934.03;;;10.03;68.42
57192;BME280;43052;52.588;13.396;2023-05-07T05:34:16;101934.44;;;10.97;65.93
57192;BME280;43052;52.588;13.396;2023-05-07T05:36:44;101922.69;;;11.40;63.59
57192;BME280;43052;52.588;13.396;2023-05-07T05:39:09;101919.41;;;11.63;63.12
57192;BME280;43052;52.588;13.396;2023-05-07T05:41:35;101923.97;;;11.85;61.79
57192;BME280;43052;52.588;13.396;2023-05-07T05:44:00;101916.59;;;11.44;61.28
57192;BME280;43052;52.588;13.396;2023-05-07T05:46:25;101927.03;;;12.53;60.18
57192;BME280;43052;52.588;13.396;2023-05-07T05:48:50;101922.09;;;13.88;56.48
57192;BME280;43052;52.588;13.396;2023-05-07T05:51:15;101927.31;;;14.02;55.43
57192;BME280;43052;52.588;13.396;2023-05-07T05:53:41;101917.72;;;13.90;55.16
57192;BME280;43052;52.588;13.396;2023-05-07T05:56:06;101924.66;;;14.30;54.95
57192;BME280;43052;52.588;13.396;2023-05-07T05:58:31;101933.38;;;14.37;53.08
57192;BME280;43052;52.588;13.396;2023-05-07T06:00:57;101940.41;;;14.44;53.34
57192;BME280;43052;52.588;13.396;2023-05-07T06:03:23;101946.53;;;14.37;53.74
57192;BME280;43052;52.588;13.396;2023-05-07T06:05:48;101941.28;;;14.48;52.89
57192;BME280;43052;52.588;13.396;2023-05-07T06:08:17;101945.72;;;14.12;53.83
57192;BME280;43052;52.588;13.396;2023-05-07T06:10:43;101949.25;;;13.95;54.51
57192;BME280;43052;52.588;13.396;2023-05-07T06:13:08;101947.50;;;13.91;54.60
57192;BME280;43052;52.588;13.396;2023-05-07T06:15:35;101952.72;;;14.23;54.64
57192;BME280;43052;52.588;13.396;2023-05-07T06:18:00;101946.28;;;15.14;52.20
57192;BME280;43052;52.588;13.396;2023-05-07T06:20:25;101940.78;;;15.45;49.81
57192;BME280;43052;52.588;13.396;2023-05-07T06:22:50;101948.34;;;14.22;51.63
57192;BME280;43052;52.588;13.396;2023-05-07T06:25:16;101959.75;;;13.64;53.80
57192;BME280;43052;52.588;13.396;2023-05-07T06:27:41;101954.41;;;13.18;54.60
57192;BME280;43052;52.588;13.396;2023-05-07T06:30:07;101959.59;;;13.02;55.61
57192;BME280;43052;52.588;13.396;2023-05-07T06:32:33;101956.00;;;12.74;56.25
57192;BME280;43052;52.588;13.396;2023-05-07T06:34:58;101969.13;;;12.78;56.46
57192;BME280;43052;52.588;13.396;2023-05-07T06:37:23;101968.31;;;12.90;55.91
57192;BME280;43052;52.588;13.396;2023-05-07T06:39:49;101959.63;;;13.16;56.36
57192;BME280;43052;52.588;13.396;2023-05-07T06:42:14;101963.19;;;13.27;55.44
57192;BME280;43052;52.588;13.396;2023-05-07T06:44:39;101977.16;;;13.22;56.15
57192;BME280;43052;52.588;13.396;2023-05-07T06:47:04;101974.63;;;13.46;55.60
57192;BME280;43052;52.588;13.396;2023-05-07T06:49:30;101979.00;;;13.41;54.98
57192;BME280;43052;52.588;13.396;2023-05-07T06:51:56;101982.34;;;13.03;55.51
57192;BME280;43052;52.588;13.396;2023-05-07T06:54:22;101982.28;;;12.81;55.75
57192;BME280;43052;52.588;13.396;2023-05-07T07:01:50;101993.06;;;13.84;53.80
57192;BME280;43052;52.588;13.396;2023-05-07T07:04:15;101978.69;;;15.26;51.73
57192;BME280;43052;52.588;13.396;2023-05-07T07:06:40;101978.47;;;17.31;45.96
57192;BME280;43052;52.588;13.396;2023-05-07T07:09:06;101982.56;;;18.56;43.89
57192;BME280;43052;52.588;13.396;2023-05-07T07:11:31;101981.28;;;18.77;42.33
57192;BME280;43052;52.588;13.396;2023-05-07T07:13:56;101978.47;;;18.85;41.82
57192;BME280;43052;52.588;13.396;2023-05-07T07:16:22;101971.81;;;20.19;40.39
57192;BME280;43052;52.588;13.396;2023-05-07T07:18:47;101970.53;;;21.82;37.10
57192;BME280;43052;52.588;13.396;2023-05-07T07:21:12;101973.97;;;22.62;34.72
57192;BME280;43052;52.588;13.396;2023-05-07T07:23:37;101976.31;;;22.71;33.53
57192;BME280;43052;52.588;13.396;2023-05-07T07:26:02;101979.47;;;21.24;34.83
57192;BME280;43052;52.588;13.396;2023-05-07T07:28:28;101992.53;;;20.06;37.73
57192;BME280;43052;52.588;13.396;2023-05-07T07:30:53;101987.75;;;21.72;36.38
57192;BME280;43052;52.588;13.396;2023-05-07T07:33:18;101980.53;;;21.75;35.22
57192;BME280;43052;52.588;13.396;2023-05-07T07:35:43;101986.69;;;22.79;34.30
57192;BME280;43052;52.588;13.396;2023-05-07T07:38:09;101980.94;;;23.13;32.37
57192;BME280;43052;52.588;13.396;2023-05-07T07:40:34;101980.63;;;24.29;31.82
57192;BME280;43052;52.588;13.396;2023-05-07T07:43:00;101975.59;;;24.42;30.28
57192;BME280;43052;52.588;13.396;2023-05-07T07:45:26;101986.06;;;23.85;30.66
57192;BME280;43052;52.588;13.396;2023-05-07T07:47:51;101961.66;;;23.73;31.43
57192;BME280;43052;52.588;13.396;2023-05-07T07:50:16;101972.03;;;24.02;30.05
57192;BME280;43052;52.588;13.396;2023-05-07T07:52:42;101963.16;;;24.01;30.80
57192;BME280;43052;52.588;13.396;2023-05-07T07:55:10;101973.13;;;25.54;28.81
57192;BME280;43052;52.588;13.396;2023-05-07T07:57:35;101959.28;;;26.33;27.53
57192;BME280;43052;52.588;13.396;2023-05-07T08:00:01;101964.84;;;26.46;26.53
57192;BME280;43052;52.588;13.396;2023-05-07T08:02:26;101955.97;;;25.75;26.89
57192;BME280;43052;52.588;13.396;2023-05-07T08:04:52;101971.84;;;25.43;27.12
57192;BME280;43052;52.588;13.396;2023-05-07T08:07:19;101958.38;;;24.89;27.83
57192;BME280;43052;52.588;13.396;2023-05-07T08:09:45;101974.88;;;25.72;26.82
57192;BME280;43052;52.588;13.396;2023-05-07T08:12:11;101968.53;;;26.10;26.26
57192;BME280;43052;52.588;13.396;2023-05-07T08:14:36;101960.25;;;26.15;26.14
57192;BME280;43052;52.588;13.396;2023-05-07T08:17:02;101958.63;;;25.75;26.81
57192;BME280;43052;52.588;13.396;2023-05-07T08:19:27;101958.00;;;26.05;26.74
57192;BME280;43052;52.588;13.396;2023-05-07T08:21:52;101967.38;;;26.32;25.81
57192;BME280;43052;52.588;13.396;2023-05-07T08:24:18;101958.09;;;25.69;25.91
57192;BME280;43052;52.588;13.396;2023-05-07T08:26:44;101970.28;;;25.01;27.19
57192;BME280;43052;52.588;13.396;2023-05-07T08:29:10;101976.09;;;25.28;27.77
57192;BME280;43052;52.588;13.396;2023-05-07T08:31:35;101967.22;;;26.00;26.84
57192;BME280;43052;52.588;13.396;2023-05-07T08:34:01;101967.00;;;26.89;25.40
57192;BME280;43052;52.588;13.396;2023-05-07T08:36:26;101972.53;;;27.34;24.85
57192;BME280;43052;52.588;13.396;2023-05-07T08:38:52;101972.72;;;27.15;24.71
57192;BME280;43052;52.588;13.396;2023-05-07T08:41:17;101966.28;;;27.49;24.27
57192;BME280;43052;52.588;13.396;2023-05-07T08:43:47;101972.53;;;26.86;24.83
57192;BME280;43052;52.588;13.396;2023-05-07T08:46:18;101973.25;;;25.87;26.00
57192;BME280;43052;52.588;13.396;2023-05-07T08:48:44;101973.56;;;26.50;25.96
57192;BME280;43052;52.588;13.396;2023-05-07T08:51:14;101974.88;;;26.07;25.45
57192;BME280;43052;52.588;13.396;2023-05-07T08:53:41;101969.38;;;26.10;25.93
57192;BME280;43052;52.588;13.396;2023-05-07T08:56:08;101989.41;;;26.54;25.25
57192;BME280;43052;52.588;13.396;2023-05-07T08:58:33;101980.22;;;26.42;24.88
57192;BME280;43052;52.588;13.396;2023-05-07T09:01:06;101985.41;;;26.12;25.97
57192;BME280;43052;52.588;13.396;2023-05-07T09:03:32;101984.34;;;25.24;26.54
57192;BME280;43052;52.588;13.396;2023-05-07T09:05:57;101998.31;;;23.24;29.01
57192;BME280;43052;52.588;13.396;2023-05-07T09:08:26;101992.84;;;22.81;30.00
57192;BME280;43052;52.588;13.396;2023-05-07T09:10:52;101991.22;;;21.45;31.63
57192;BME280;43052;52.588;13.396;2023-05-07T09:13:18;101991.94;;;21.79;31.65
57192;BME280;43052;52.588;13.396;2023-05-07T09:15:43;101986.41;;;21.58;31.71
57192;BME280;43052;52.588;13.396;2023-05-07T09:18:08;101992.81;;;20.61;33.37
57192;BME280;43052;52.588;13.396;2023-05-07T09:20:36;101991.31;;;19.83;35.24
57192;BME280;43052;52.588;13.396;2023-05-07T09:23:01;101994.25;;;19.71;35.44
57192;BME280;43052;52.588;13.396;2023-05-07T09:25:31;101990.13;;;19.59;36.20
57192;BME280;43052;52.588;13.396;2023-05-07T09:27:56;102005.88;;;19.28;36.31
57192;BME280;43052;52.588;13.396;2023-05-07T09:30:22;102008.13;;;18.10;38.95
57192;BME280;43052;52.588;13.396;2023-05-07T09:32:47;102005.63;;;17.41;40.63
57192;BME280;43052;52.588;13.396;2023-05-07T09:35:16;102008.56;;;17.21;41.65
57192;BME280;43052;52.588;13.396;2023-05-07T09:37:42;102008.09;;;16.85;41.95
57192;BME280;43052;52.588;13.396;2023-05-07T09:40:08;101998.16;;;17.71;40.44
57192;BME280;43052;52.588;13.396;2023-05-07T09:42:37;101983.47;;;20.79;35.05
57192;BME280;43052;52.588;13.396;2023-05-07T09:45:14;101999.38;;;22.72;31.07
57192;BME280;43052;52.588;13.396;2023-05-07T09:47:42;101998.28;;;21.75;32.35
57192;BME280;43052;52.588;13.396;2023-05-07T09:50:10;101992.91;;;22.03;32.05
57192;BME280;43052;52.588;13.396;2023-05-07T09:52:44;101998.47;;;20.80;34.02
57192;BME280;43052;52.588;13.396;2023-05-07T09:55:10;102007.56;;;19.30;35.67
57192;BME280;43052;52.588;13.396;2023-05-07T09:57:36;102010.41;;;18.78;37.30
57192;BME280;43052;52.588;13.396;2023-05-07T10:00:02;102001.78;;;20.24;35.83
57192;BME280;43052;52.588;13.396;2023-05-07T10:02:31;102004.38;;;20.92;33.96
57192;BME280;43052;52.588;13.396;2023-05-07T10:05:00;102017.63;;;19.16;36.11
57192;BME280;43052;52.588;13.396;2023-05-07T10:07:27;102013.31;;;17.61;39.30
57192;BME280;43052;52.588;13.396;2023-05-07T10:09:53;102001.38;;;16.60;41.46
57192;BME280;43052;52.588;13.396;2023-05-07T10:12:19;102011.53;;;16.09;42.79
57192;BME280;43052;52.588;13.396;2023-05-07T10:14:45;102017.84;;;15.83;43.58
57192;BME280;43052;52.588;13.396;2023-05-07T10:17:13;102026.91;;;15.42;44.70
57192;BME280;43052;52.588;13.396;2023-05-07T10:19:38;102016.50;;;15.20;45.02
57192;BME280;43052;52.588;13.396;2023-05-07T10:22:05;102024.41;;;15.22;45.26
57192;BME280;43052;52.588;13.396;2023-05-07T10:24:35;102017.34;;;15.22;45.36
57192;BME280;43052;52.588;13.396;2023-05-07T10:27:04;102013.38;;;15.99;43.74
57192;BME280;43052;52.588;13.396;2023-05-07T10:29:45;102009.88;;;16.86;41.73
57192;BME280;43052;52.588;13.396;2023-05-07T10:32:43;102017.31;;;16.48;42.49
57192;BME280;43052;52.588;13.396;2023-05-07T10:35:16;102016.81;;;16.10;43.61
57192;BME280;43052;52.588;13.396;2023-05-07T10:37:43;102019.53;;;15.98;44.05
57192;BME280;43052;52.588;13.396;2023-05-07T10:40:10;102006.28;;;16.07;44.01
57192;BME280;43052;52.588;13.396;2023-05-07T10:42:36;102006.09;;;16.26;43.02
57192;BME280;43052;52.588;13.396;2023-05-07T10:45:14;102015.94;;;16.11;43.89
57192;BME280;43052;52.588;13.396;2023-05-07T10:50:30;102019.00;;;16.55;42.30
57192;BME280;43052;52.588;13.396;2023-05-07T10:55:50;102016.66;;;16.26;42.77
57192;BME280;43052;52.588;13.396;2023-05-07T10:58:23;102007.69;;;16.45;42.65
57192;BME280;43052;52.588;13.396;2023-05-07T11:00:50;102019.81;;;16.65;42.75
57192;BME280;43052;52.588;13.396;2023-05-07T11:03:16;102000.16;;;16.88;41.85
57192;BME280;43052;52.588;13.396;2023-05-07T11:05:42;102015.59;;;17.22;41.68
57192;BME280;43052;52.588;13.396;2023-05-07T11:08:08;102007.81;;;17.14;40.55
57192;BME280;43052;52.588;13.396;2023-05-07T11:10:53;102006.06;;;17.10;40.70
57192;BME280;43052;52.588;13.396;2023-05-07T11:16:19;102009.16;;;16.71;41.98
57192;BME280;43052;52.588;13.396;2023-05-07T11:18:49;102006.53;;;16.70;41.25
57192;BME280;43052;52.588;13.396;2023-05-07T11:21:35;101998.66;;;16.67;41.55
57192;BME280;43052;52.588;13.396;2023-05-07T11:24:02;101997.59;;;16.80;40.41
57192;BME280;43052;52.588;13.396;2023-05-07T11:26:29;101997.53;;;16.85;41.05
57192;BME280;43052;52.588;13.396;2023-05-07T11:28:56;102009.81;;;16.90;40.63
57192;BME280;43052;52.588;13.396;2023-05-07T11:31:24;101999.63;;;16.56;40.66
57192;BME280;43052;52.588;13.396;2023-05-07T11:33:51;102004.56;;;16.02;41.45
57192;BME280;43052;52.588;13.396;2023-05-07T11:36:18;102003.97;;;15.59;42.89
57192;BME280;43052;52.588;13.396;2023-05-07T11:38:43;102002.25;;;15.54;43.47
57192;BME280;43052;52.588;13.396;2023-05-07T11:41:08;101996.94;;;15.58;43.45
57192;BME280;43052;52.588;13.396;2023-05-07T11:43:34;101999.34;;;15.95;42.61
57192;BME280;43052;52.588;13.396;2023-05-07T11:46:11;101988.53;;;16.23;42.46
57192;BME280;43052;52.588;13.396;2023-05-07T11:48:36;102001.66;;;16.33;42.28
57192;BME280;43052;52.588;13.396;2023-05-07T11:51:04;101994.88;;;16.04;42.48
57192;BME280;43052;52.588;13.396;2023-05-07T11:53:40;101993.13;;;16.03;43.02
57192;BME280;43052;52.588;13.396;2023-05-07T11:56:07;101988.50;;;16.28;43.15
57192;BME280;43052;52.588;13.396;2023-05-07T11:58:32;102002.16;;;16.69;42.51
57192;BME280;43052;52.588;13.396;2023-05-07T12:00:58;101988.91;;;16.73;41.70
57192;BME280;43052;52.588;13.396;2023-05-07T12:03:23;101995.38;;;16.41;41.35
57192;BME280;43052;52.588;13.396;2023-05-07T12:05:48;101994.78;;;16.16;41.68
57192;BME280;43052;52.588;13.396;2023-05-07T12:08:18;101989.44;;;16.19;42.36
57192;BME280;43052;52.588;13.396;2023-05-07T12:10:44;101986.84;;;16.16;42.28
57192;BME280;43052;52.588;13.396;2023-05-07T12:13:16;102004.66;;;15.88;42.03
57192;BME280;43052;52.588;13.396;2023-05-07T12:15:42;101990.03;;;15.39;43.33
57192;BME280;43052;52.588;13.396;2023-05-07T12:18:08;101992.75;;;15.29;44.05
57192;BME280;43052;52.588;13.396;2023-05-07T12:20:35;102002.41;;;15.29;44.25
57192;BME280;43052;52.588;13.396;2023-05-07T12:23:01;101991.78;;;15.46;44.04
57192;BME280;43052;52.588;13.396;2023-05-07T12:25:26;102006.63;;;15.58;43.59
57192;BME280;43052;52.588;13.396;2023-05-07T12:27:54;101995.19;;;15.57;42.84
57192;BME280;43052;52.588;13.396;2023-05-07T12:30:20;102003.16;;;15.51;42.64
57192;BME280;43052;52.588;13.396;2023-05-07T12:32:45;101997.09;;;15.37;43.43
57192;BME280;43052;52.588;13.396;2023-05-07T12:35:10;101987.41;;;15.37;43.41
57192;BME280;43052;52.588;13.396;2023-05-07T12:37:36;101990.06;;;15.32;44.21
57192;BME280;43052;52.588;13.396;2023-05-07T12:40:06;101990.00;;;15.49;44.54
57192;BME280;43052;52.588;13.396;2023-05-07T12:42:40;101982.75;;;15.78;44.19
57192;BME280;43052;52.588;13.396;2023-05-07T12:45:12;102001.19;;;15.79;42.84
57192;BME280;43052;52.588;13.396;2023-05-07T12:47:44;101988.16;;;15.56;43.43
57192;BME280;43052;52.588;13.396;2023-05-07T12:50:10;102003.09;;;15.60;43.39
57192;BME280;43052;52.588;13.396;2023-05-07T12:52:36;101981.91;;;15.74;43.27
57192;BME280;43052;52.588;13.396;2023-05-07T12:55:06;102000.25;;;15.93;42.99
57192;BME280;43052;52.588;13.396;2023-05-07T12:57:41;101995.78;;;16.01;42.78
57192;BME280;43052;52.588;13.396;2023-05-07T13:00:06;101988.81;;;15.92;42.11
57192;BME280;43052;52.588;13.396;2023-05-07T13:02:39;101979.13;;;15.94;42.70
57192;BME280;43052;52.588;13.396;2023-05-07T13:05:04;101989.63;;;16.01;42.25
57192;BME280;43052;52.588;13.396;2023-05-07T13:07:30;101991.44;;;15.95;42.29
57192;BME280;43052;52.588;13.396;2023-05-07T13:09:55;101988.88;;;15.86;42.11
57192;BME280;43052;52.588;13.396;2023-05-07T13:12:20;101994.94;;;15.94;42.24
57192;BME280;43052;52.588;13.396;2023-05-07T13:14:45;101984.31;;;16.07;42.08
57192;BME280;43052;52.588;13.396;2023-05-07T13:17:11;101989.56;;;16.07;42.09
57192;BME280;43052;52.588;13.396;2023-05-07T13:20:10;101986.16;;;15.94;42.12
57192;BME280;43052;52.588;13.396;2023-05-07T13:22:45;101968.50;;;16.04;41.78
57192;BME280;43052;52.588;13.396;2023-05-07T13:25:10;101977.88;;;16.31;40.73
57192;BME280;43052;52.588;13.396;2023-05-07T13:27:36;101975.41;;;16.19;40.45
57192;BME280;43052;52.588;13.396;2023-05-07T13:30:03;101994.91;;;16.02;40.97
57192;BME280;43052;52.588;13.396;2023-05-07T13:32:28;101987.91;;;15.93;41.67
57192;BME280;43052;52.588;13.396;2023-05-07T13:34:53;101987.75;;;16.15;41.27
57192;BME280;43052;52.588;13.396;2023-05-07T13:37:18;101993.72;;;16.33;41.51
57192;BME280;43052;52.588;13.396;2023-05-07T13:39:44;101988.59;;;16.16;41.66
57192;BME280;43052;52.588;13.396;2023-05-07T13:42:09;101989.69;;;15.91;42.30
57192;BME280;43052;52.588;13.396;2023-05-07T13:44:35;101994.09;;;15.94;42.44
57192;BME280;43052;52.588;13.396;2023-05-07T13:47:00;101979.03;;;16.04;42.22
57192;BME280;43052;52.588;13.396;2023-05-07T13:49:25;101988.84;;;15.89;41.45
57192;BME280;43052;52.588;13.396;2023-05-07T13:51:50;101985.47;;;15.67;42.29
57192;BME280;43052;52.588;13.396;2023-05-07T13:54:16;102000.41;;;15.66;42.38
57192;BME280;43052;52.588;13.396;2023-05-07T13:56:41;101988.88;;;15.78;41.54
57192;BME280;43052;52.588;13.396;2023-05-07T13:59:08;101984.47;;;15.88;41.87
57192;BME280;43052;52.588;13.396;2023-05-07T14:01:34;101987.03;;;15.97;41.18
57192;BME280;43052;52.588;13.396;2023-05-07T14:03:59;101983.50;;;15.97;41.30
57192;BME280;43052;52.588;13.396;2023-05-07T14:06:24;101984.50;;;15.84;40.91
57192;BME280;43052;52.588;13.396;2023-05-07T14:08:50;101992.50;;;15.65;41.23
57192;BME280;43052;52.588;13.396;2023-05-07T14:11:15;101982.00;;;15.59;41.41
57192;BME280;43052;52.588;13.396;2023-05-07T14:13:40;101985.50;;;15.59;41.58
57192;BME280;43052;52.588;13.396;2023-05-07T14:16:05;101978.31;;;15.81;41.24
57192;BME280;43052;52.588;13.396;2023-05-07T14:18:31;101965.81;;;16.08;40.63
57192;BME280;43052;52.588;13.396;2023-05-07T14:20:58;101974.34;;;16.35;39.42
57192;BME280;43052;52.588;13.396;2023-05-07T14:23:23;101960.91;;;16.57;39.47
57192;BME280;43052;52.588;13.396;2023-05-07T14:25:54;101962.56;;;16.66;39.57
57192;BME280;43052;52.588;13.396;2023-05-07T14:28:31;101957.22;;;16.70;39.83
57192;BME280;43052;52.588;13.396;2023-05-07T14:30:59;101963.47;;;16.63;39.88
57192;BME280;43052;52.588;13.396;2023-05-07T14:33:25;101973.56;;;16.25;40.11
57192;BME280;43052;52.588;13.396;2023-05-07T14:35:50;101966.78;;;15.98;40.90
57192;BME280;43052;52.588;13.396;2023-05-07T14:38:15;101962.56;;;15.75;41.09
57192;BME280;43052;52.588;13.396;2023-05-07T14:40:43;101974.03;;;15.70;41.08
57192;BME280;43052;52.588;13.396;2023-05-07T14:43:08;101971.31;;;15.79;41.11
57192;BME280;43052;52.588;13.396;2023-05-07T14:45:33;101973.84;;;15.94;40.56
57192;BME280;43052;52.588;13.396;2023-05-07T14:48:00;101965.88;;;16.02;40.60
57192;BME280;43052;52.588;13.396;2023-05-07T14:50:25;101973.81;;;15.97;40.56
57192;BME280;43052;52.588;13.396;2023-05-07T14:52:50;101973.84;;;15.91;41.19
57192;BME280;43052;52.588;13.396;2023-05-07T14:55:16;101990.63;;;15.87;41.56
57192;BME280;43052;52.588;13.396;2023-05-07T14:57:41;101977.47;;;15.75;41.71
57192;BME280;43052;52.588;13.396;2023-05-07T15:00:06;101976.69;;;15.62;42.08
57192;BME280;43052;52.588;13.396;2023-05-07T15:02:33;101983.75;;;15.58;42.67
57192;BME280;43052;52.588;13.396;2023-05-07T15:04:59;101989.91;;;15.57;42.21
57192;BME280;43052;52.588;13.396;2023-05-07T15:07:24;101989.00;;;15.66;42.02
57192;BME280;43052;52.588;13.396;2023-05-07T15:09:51;101987.13;;;15.84;41.72
57192;BME280;43052;52.588;13.396;2023-05-07T15:12:19;101982.63;;;16.00;41.59
57192;BME280;43052;52.588;13.396;2023-05-07T15:14:45;101999.19;;;16.11;41.08
57192;BME280;43052;52.588;13.396;2023-05-07T15:17:10;101990.41;;;16.12;41.45
57192;BME280;43052;52.588;13.396;2023-05-07T15:19:35;101984.25;;;16.11;40.63
57192;BME280;43052;52.588;13.396;2023-05-07T15:22:00;101981.56;;;16.14;40.93
57192;BME280;43052;52.588;13.396;2023-05-07T15:24:30;101978.81;;;16.27;41.03
57192;BME280;43052;52.588;13.396;2023-05-07T15:26:55;101983.13;;;16.36;40.80
57192;BME280;43052;52.588;13.396;2023-05-07T15:29:20;101983.13;;;16.37;40.72
57192;BME280;43052;52.588;13.396;2023-05-07T15:31:46;101994.63;;;16.32;40.93
57192;BME280;43052;52.588;13.396;2023-05-07T15:34:12;101999.19;;;16.11;41.07
57192;BME280;43052;52.588;13.396;2023-05-07T16:28:08;101997.31;;;14.82;44.79
57192;BME280;43052;52.588;13.396;2023-05-07T16:57:56;102013.19;;;14.61;45.83
57192;BME280;43052;52.588;13.396;2023-05-07T17:00:44;102023.69;;;14.59;45.93
57192;BME280;43052;52.588;13.396;2023-05-07T17:10:46;102024.59;;;14.42;46.17
57192;BME280;43052;52.588;13.396;2023-05-07T17:13:18;102039.53;;;14.36;45.08
57192;BME280;43052;52.588;13.396;2023-05-07T17:16:31;102020.25;;;14.01;45.47
57192;BME280;43052;52.588;13.396;2023-05-07T17:22:54;102043.91;;;13.75;46.63
57192;BME280;43052;52.588;13.396;2023-05-07T17:25:41;102036.88;;;13.66;46.67
57192;BME280;43052;52.588;13.396;2023-05-07T17:38:33;102064.84;;;13.44;46.52
57192;BME280;43052;52.588;13.396;2023-05-07T17:40:58;102055.16;;;13.35;46.48
57192;BME280;43052;52.588;13.396;2023-05-07T17:43:24;102062.19;;;13.41;46.52
57192;BME280;43052;52.588;13.396;2023-05-07T17:45:49;102070.09;;;13.44;46.99
57192;BME280;43052;52.588;13.396;2023-05-07T17:48:15;102068.34;;;13.47;47.12
57192;BME280;43052;52.588;13.396;2023-05-07T17:50:41;102076.25;;;13.52;46.91
57192;BME280;43052;52.588;13.396;2023-05-07T17:53:06;102068.38;;;13.57;46.93
57192;BME280;43052;52.588;13.396;2023-05-07T17:55:33;102085.03;;;13.59;47.06
57192;BME280;43052;52.588;13.396;2023-05-07T17:58:04;102076.28;;;13.61;47.10
57192;BME280;43052;52.588;13.396;2023-05-07T18:00:29;102083.28;;;13.56;47.37
57192;BME280;43052;52.588;13.396;2023-05-07T18:02:55;102078.84;;;13.49;47.12
57192;BME280;43052;52.588;13.396;2023-05-07T18:05:20;102090.25;;;13.46;47.44
57192;BME280;43052;52.588;13.396;2023-05-07T18:07:45;102081.47;;;13.41;47.58